Timeline UpdatesTrip UpdatesNews PostsPvt Posts♥♥Travel TipsAdmin PostsConv PostsFollowed PostsChat RequestsBlog PostsPNR Posts

Disclaimer
Search
 
 
Fri Oct 31, 2014 11:49:00 ISTHomeTrainsΣChainsAtlasPNRForumGalleryNewsFAQTripsMembersLoginFeedback
No Recent News for this Train
Other Trains in the News **new
Latest...
Temporary Stoppage at Mahadevsal Station every Sunday and Monday from 23.07.2013 to 21.08.2013 during Shravani Melaa
Tue Jul 23, 2013 (10:09AM)
⇐ Return Journey: Train# 18029

18030/Shalimar-Mumbai LTT [Kurla] Express

Time-Table HAS CHANGED.
Sep 28 2014 (12:58PM)
Change Departure Station:
Change Arrival Station:
Post a Train Travel TipPost a Train Travel Tip **new
Post a Comment/Question/Picture/VideoPost a Comment/Question/Picture/Video
Pantry/Catering
✕ NO Pantry Car
✓ Catering Avbl
RSA - Rake Sharing
runs with 5 dedicated rake.. no RSA...
Rake/Coach Composition
LOCO-HCPV-HCPV-SLR-GS-S13-S12-S11-S10-S9-S8-S7-S6-S5-S4-S3-S2-S1-B1-A1-GS-SLR-HCPV-HCPV
Loco
HWH/SRC WAP-4
News    PNR    Forum    Time-Table    Availability    Fare Chart    Map    Arr/Dep History    Trips    Gallery    ΣChains    X/O    Timeline    
Travel Time: 0h 33m    0 halts    Distance: 39 km    Avg Speed: 70 km/hr
Type: Mail/Express
Zone: SER/South Eastern
Departs @ 17:50 (Avg 6m late)
Platform# ???
SMTWTFS
Kharagpur Junction/KGP 
Arrives @ 18:23 (Avg 9m late)
Platform# ???
SMTWTFS
Jhargram/JGM 

0 halts. 5 intermediate Stations between Kharagpur Junction and Jhargram

Show ALL intermediate Stations  Show Old Time-Table

#TrkCodeStation NameX/OArrivesAvgDepartsAvgHaltPFDay#KmSpeedElevZoneAddress
1/==/SHMKolkata Shalimar (2)  -15:00+011-112.3285mSERSHIBPUR . DIST- Howrah, West Bengal
2/==/SRCKolkata Santragachi Junction (6)  15:11 15:10+615:12+61 2m11-107.6657mSERDist: Howrah - 711104, West Bengal
3/==/ULBUluberia (6)XO  15:36 15:35+1015:37+131 2m11-82.85010mSERdist - howrah, West Bengal
4/==/MCAMecheda (6)X  16:09 16:08+1016:10+231 2m--1-56.82710mSERdist - purba Medinipur, West Bengal
5/==/PKUPanskura Junction (6)X  16:39 16:38+916:40+231 2m--1-44.4489mSERPanskura, West Bengal
6/==/KGPKharagpur Junction (10)»X  17:35+717:50+615m--10.07142mSERKharagpur, West Bengal
7/==/JGMJhargram (4)•X  18:24 18:23+918:25+91 2m--139.18382mSERJhargram, West Bengal
8/==/CKUChakulia (4)  18:47 18:46+718:48+71 2m--168.487126mSERChakulia, Jharkhand
9/==/GTSGhatsila (3)  19:11 19:09+319:12 19:11+31 2m--198.960103mSEREast Singhbhum, Jharkhand
10/==/GUDGaludih (4)  19:23 19:21+519:24 19:23+51 2m--1108.946120mSEREast Singhbhum, Jharkhand
11/==/RHERakha Mines (2)  19:34 19:32+019:35 19:34+21 2m--1115.845118mSEREast Singhbhum, Jharkhand
12/==/TATATatanagar Junction (5)X  20:05 20:00+920:10 20:05+125m--1135.156164mSER91-657-2423026, Jharkhand
13/==/SINISini Junction (3)  20:36 20:34+1320:37 20:35+141m--1162.161182mSERNational Highway 33, Jharkhand
14/==/RKSNRajkharsawan Junction (3)  20:53 20:50+1720:54 20:51+181m--1177.371189mSERSaraikela Kharswan District, Jharkhand
15/==/CKPChakradharpur (3)X  21:11 21:08+1921:16 21:13+205m11197.379235mSERChakradharpur (West Singhbhum), Jharkhand
16/==/SWRSonua  21:31 21:29+2221:32 21:30+231m--1218.364287mSERSonua, Jharkhand
17/==/GOLGoilkera (2)X  21:44 21:42+2321:45 21:43+241m--1231.157333mSERGoilkera, Jharkhand
18/==/MOUManoharpur  22:15 22:12+2222:16 22:13+231m--1258.674228mSERManoharpur, Jharkhand
19/==/BNDMBondamunda (2)  22:42 22:40+2122:43 22:41+201m--1291.921213mSERRourkela, Odisha
20/--/ROURourkela Junction (5)X  23:03 23:00+1923:13 23:10+1910m21298.469198mSERRourkela, Odisha
21/==/GPRaj Gangpur (3)  23:40 23:36+2423:41 23:37+251m11328.269237mSERRaj Ganpur, Odisha
22/==/BMBBamra (3)  00:09 00:07+2300:10 00:08+241m--2362.852259mSERBamra PH : 06642-229268, Odisha
23/==/JSGJharsuguda Junction (5)XO  00:50+1400:55+175m12399.388236mSERJharsuguda, Odisha
24/==/BRJNBrajrajnagarX  01:04 01:03+2601:05+271 2m--2411.067212mSECRBrajrajnagar, Odisha
25/==/BPHBelpahar (2)  01:14 01:13+2801:15+281 2m--2419.985235mSECRBelpahar, Odisha
26/==/RIGRaigarh (3)  01:51+3101:56+335m--2471.093220mSECRRaigarh, Chhattisgarh
27/==/KHSKharsia  02:19 02:18+4302:20+431 2m--2504.977 SECRNational Highway 200, Chhattisgarh
28/==/SKTSakti (4)  02:33 02:32+4502:34+451 2m--2520.376237mSECRJanjgir-Champa, Chhattisgarh
29/==/CPHChampa Junction (3)X  02:58+4603:03+445m--2550.772264mSECRNational Highway 200 (07819-245767), Chhattisgarh
30/==/NIANailaX  03:13 03:12+4603:14+451 2m--2561.675273mSECRJanjgir, Chhattisgarh
31/==/AKTAkaltara (4)  03:27 03:26+4403:28+441 2m--2576.529284mSECRDist. Janjgir Champa, Chhattisgarh
32/==/BSPBilaspur Junction (8)  04:25+1504:45+2120m32603.849271mSECRBilaspur, Chhattisgarh
33/==/BYLBelha  05:04+1905:05+201m--2619.380269mSECRCollege Road, Chhattisgarh
34/==/BYTBhatapara (4)  05:29 05:28+2305:30+231 2m--2649.987270mSECRBanjari Road, Chhattisgarh
35/==/TLDTilda (3)  05:49 05:48+2405:50+241 2m12676.051 SECRBanjari Rd, Chhattisgarh
36/==/RRaipur Junction (6)X  06:35+2106:45+2310m12714.270297mSECRRaipur, Chhattisgarh
37/==/DBECDevbaloda CharodaX  07:02-07:03-1m--2734.141310mSECRBhilai, Chhattisgarh
38/==/BIABhilai (2)X  07:09 07:08+2907:10+281 2m--2737.546309mSECRBhilai, Chhattisgarh
39/==/BPHBBhilai Power House (3)  07:17 07:16+307:18+31 2m--2742.227312mSECRBhilai, Chhattisgarh
40/==/BQRBhilai Nagar (2)  07:29 07:28+2207:30+221 2m--2746.618298mSECRBhilai, Chhattisgarh
41/==/DURGDurg Junction (6)X  07:45+1907:55+2010m--2751.187299mSECRPh: 91-788-2322059, Chhattisgarh
42/==/RJNRaj Nandgaon (3)  08:16+2908:21+295m--2781.682313mSECRRajnandgaon, Chhattisgarh
43/==/DGGDongargarh (2)  08:44+3808:45+411m--2813.161 SECRDongargarh, Chhattisgarh
44/==/SKSSalekasa (2)  09:21 09:20+4509:22+451 2m--2848.980312mSECRRajnandgaon, Chhattisgarh
45/==/AGNAmgaon (2)  09:34 09:33+4509:35+461 2m--2863.646317mSECRGondia, Maharashtra
46/==/GGondia Junction (7)X  10:05+3910:15+4310m--2886.492316mSECRGondia 441601, Maharashtra
47/==/TROTirora (3)X  10:35 10:34+4910:36+501 2m--2915.772282mSECRDist Gondia, Maharashtra
48/==/TMRTumsar Road (5)X  10:54 10:53+4810:55+491 2m--2936.067267mSECRDistt. Bhandara, Maharashtra
49/==/BRDBhandara Road (3)  11:12 11:11+4911:13+481 2m--2954.078266mSECRState Highway 252 Bhandara District, Maharashtra
50/==/KPKamptee (3)X  11:51 11:50+4711:52+471 2m--21001.933290mSECRKamptee, Maharashtra
51/==/ITRItwari (3)O  12:12 12:11+4612:13+501 2m--21012.44306mSECRNagpur, Maharashtra
52|--|NGPNagpur Junction (8)X  13:15+1513:40+1525m721016.223314mCRNagpur 440001, Maharashtra
53/==/AJNIAjni (3)  13:48+2013:49+211m221019.282310mCRNagpur 440003, Maharashtra
54/==/SNISindi (2)  14:21+2414:22+261m121063.157258mCRWardha, Maharashtra
55/==/SEGMSewagram Junction (5)X  14:53+2314:54+241m121092.420279mCRWardha, Maharashtra
56/==/WRWardha Junction (4)  15:02+2215:05+213m221095.184289mCRWardha 442001, Maharashtra
57/==/PLOPulgaon Junction (3)  15:26+2515:27+261m221124.670273mCRPulgaon, Maharashtra
58/==/DMNDhamangaon (2)  15:44+2515:45+261m121144.663300mCRDhamangaon, Maharashtra
59/==/CNDChandur (2)X  16:01+2616:02+261m--21161.330331mCRAmravati Distt, Maharashtra
60/==/BDBadnera Junction (4)  17:00+817:05+95m121190.090335mCRBadnera (Amravati) 444701, Maharashtra
61/==/MZRMurtizapur (3)  17:33+1617:35+162m121231.874303mCRMurtajapur, Maharashtra
62/==/AKAkola Junction (7)  18:05+1718:10+175m121269.086284mCRAkola-444001, Maharashtra
63/==/PSParas (2)  18:24+2118:25+231m--21289.074282mCRAkola, Maharashtra
64/==/SEGShegaon (2)  18:39+2518:40+261m--21306.183281mCRShegaon 444203, Maharashtra
65/==/JMJalamb Junction (3)X  18:49+2818:50+281m--21318.682259mCRJalamb, Maharashtra
66/==/NNNandura (2)X  18:59+2919:00+301m--21330.870267mCRNandura, Maharashtra
67/==/MKUMalkapur (2)X  19:24+2819:25+291m121358.762252mCRMalkapur, Maharashtra
68/==/BDWDBodwad (2)X  19:44+2819:45+311m--21378.340294mCRBodwad, Maharashtra
69/==/BSLBhusaval Junction (8)X  20:30+2020:45+2115m521408.660208mCRBhusaval 425201, Maharashtra
70/==/JLJalgaon Junction (4)  21:09+2621:10+281m221432.784213mCRJalgaon 425001, Maharashtra
71/==/PCPachora Junction (4)X  21:44+3321:45+351m--21480.493264mCRPachora 424201, Maharashtra
72/==/CSNChalisgaon Junction (3)  22:14+4022:15+421m--21525.387352mCRChalisgaon 424101, Maharashtra
73/==/NGNNandgaon (3)  22:44+4322:45+451m--21567.461476mCRNandgaon, Maharashtra
74/==/MMRManmad Junction (6)  23:12 23:10+4423:15+453 5m321592.877580mCRManmad 423104, Maharashtra
75/==/LSLasalgaon (3)  23:34+4923:35+501m--21617.372592mCRLasalgaon, Maharashtra
76/==/NKNasik Road (3)X  00:19 00:15+4800:20+471 5m331665.538563mCRNashik 422101, Maharashtra
77/==/DVLDevlali (3)X  00:29+4800:30+491m231671.336561mCRDist. Nashik 422401, Maharashtra
78/==/IGPIgatpuri (4)XO  01:49 01:45+2201:50+281 5m--31716.220589mCRIgatpuri 422403, Maharashtra
79/==/KSRAKasara (4)XO  02:39 02:33+2802:40 02:35+311 2m--31730.658290mCRDist. Thane 421602, Maharashtra
80/==/KYNKalyan Junction (8)O  03:50 03:45+2803:55 03:50+305m631798.06710mCRKalyan 421301, Maharashtra
81/==/TNAThane (10)  04:09 04:08+3004:10+321 2m831818.22510mCRThane (West) 400602, Maharashtra
82/==/LTTMumbai Lokmanya Tilak Terminus (5)  04:50+29-331834.7-7mCRMumbai - 400089, Maharashtra
Scroll to Top
Scroll to Bottom